Westfield, Wisconsin
Current Conditions -  °F | °C
As of 7:39 PM on Sunday 23 Nov 2014 (Local Time) from KY50 Reporting Station
Haze Haze  
Wind Chill:   Ceiling: 100
Heat Index:   Visibility: 1mi
Dew Point:   Wind: 0mph
Humidity: 100%   Direction: NA
Pressure: 29.3"   Gusts: NA
Location:  43.88°N, 89.49°W
Report Text: KY50 240139Z AUTO 00000KT 1SM BR OVC001 08/08 A2930 RMK AO2 TSNO
Loading
Personal Weather Stations






























Interactive Weather Map New forecast layout! Learn more

10-Day Weather Forecast

Advertisements
Track Severe Weather on mobile